Time;durP1;ratioP1;P1;durP2;ratioP2;P2;SDS_P1;SDS_P2;PMS_P1;PMS_P2;Temp;Humidity;BMP_temperature;BMP_pressure;BME280_temperature;BME280_humidity;BME280_pressure;Samples;Min_cycle;Max_cycle;Signal;HPM_P1;HPM_P2
2022/08/31 17:52:09;;;;;;;4.63;4.33;;;;;;;20.89;66.47;94302.88;2095375;54;70512;-80
2022/08/31 17:58:21;;;;;;;5.22;4.82;;;;;;;20.74;61.72;94231.84;2617531;47;20359;-81
2022/08/31 18:01:19;;;;;;;5.90;4.85;;;;;;;20.95;62.25;94267.53;2614442;47;20187;-81
2022/08/31 18:11:22;;;;;;;11.55;6.10;;;;;;;21.59;60.45;94372.50;2611943;46;20160;-81
2022/08/31 18:13:51;;;;;;;5.72;4.78;;;;;;;21.47;61.88;94415.19;2612929;54;20252;-78
2022/08/31 18:16:20;;;;;;;11.52;5.20;;;;;;;21.53;61.70;94400.72;2613495;54;20161;-77
2022/08/31 18:18:51;;;;;;;5.05;4.63;;;;;;;22.02;63.27;94409.38;2612855;54;20241;-78
2022/08/31 18:21:23;;;;;;;4.10;3.72;;;;;;;22.23;58.79;94407.63;2613766;47;20278;-77
2022/08/31 18:23:53;;;;;;;4.22;3.88;;;;;;;22.28;58.84;94426.28;2615196;47;20776;-76
2022/08/31 18:26:26;;;;;;;6.10;4.80;;;;;;;22.50;59.15;94430.25;2613661;54;20452;-76
2022/08/31 18:28:56;;;;;;;5.43;3.95;;;;;;;22.87;59.66;94436.13;2614304;54;20161;-77
2022/08/31 18:31:29;;;;;;;5.38;4.85;;;;;;;23.17;59.86;94429.78;2617962;47;20148;-78
2022/08/31 18:34:01;;;;;;;6.43;4.25;;;;;;;23.47;58.55;94439.31;2616001;54;20264;-79
2022/08/31 18:36:37;;;;;;;5.25;3.78;;;;;;;23.51;57.71;94431.28;2616662;54;20153;-77
2022/08/31 18:39:08;;;;;;;5.00;4.50;;;;;;;23.38;57.83;94409.84;2616525;54;20711;-77
2022/08/31 18:47:04;;;;;;;3.97;3.67;;;;;;;23.43;57.13;94410.50;2615934;54;20193;-77
2022/08/31 18:49:37;;;;;;;4.95;4.32;;;;;;;23.59;57.64;94436.91;2616405;54;20286;-77
2022/08/31 18:52:08;;;;;;;5.35;4.85;;;;;;;23.45;56.26;94442.25;2615469;54;20722;-76
2022/08/31 18:54:37;;;;;;;7.93;4.28;;;;;;;23.55;57.45;94427.59;2615953;54;20164;-78
2022/08/31 18:57:09;;;;;;;5.80;5.15;;;;;;;23.58;57.79;94441.28;2615442;54;20164;-76
2022/08/31 18:59:39;;;;;;;5.10;4.10;;;;;;;23.50;57.88;94437.81;2614793;54;20149;-78
2022/08/31 19:02:16;;;;;;;5.53;4.80;;;;;;;23.26;58.06;94399.25;2615805;47;20217;-78
2022/08/31 19:04:46;;;;;;;5.93;4.60;;;;;;;23.17;56.43;94417.53;2616595;54;20156;-78
2022/08/31 19:07:15;;;;;;;5.93;4.13;;;;;;;22.86;57.02;94446.25;2616612;47;20229;-77
2022/08/31 19:09:45;;;;;;;4.55;4.18;;;;;;;22.95;59.15;94441.78;2618704;47;20149;-79
2022/08/31 19:12:18;;;;;;;7.03;4.57;;;;;;;22.72;59.68;94418.31;2620578;47;20133;-79
2022/08/31 19:14:54;;;;;;;4.38;3.97;;;;;;;22.83;59.83;94431.13;2617058;47;20152;-79
2022/08/31 19:17:23;;;;;;;7.63;4.82;;;;;;;22.58;61.23;94430.13;2616525;47;20153;-78
2022/08/31 19:19:52;;;;;;;5.05;4.65;;;;;;;22.27;61.71;94421.28;2616537;54;20153;-77
2022/08/31 19:22:21;;;;;;;4.72;4.28;;;;;;;22.20;62.85;94417.75;2617582;54;20699;-78
2022/08/31 19:24:50;;;;;;;6.97;4.97;;;;;;;22.33;62.25;94418.28;2615763;47;20145;-78
2022/08/31 19:27:22;;;;;;;5.13;4.73;;;;;;;22.36;61.71;94424.72;2617417;54;20408;-78
2022/08/31 19:29:54;;;;;;;5.07;4.63;;;;;;;22.26;61.90;94396.75;2618016;54;20673;-78
2022/08/31 19:32:23;;;;;;;4.20;3.90;;;;;;;22.22;62.26;94399.72;2616271;47;20183;-78
2022/08/31 19:34:52;;;;;;;5.13;4.60;;;;;;;22.58;62.01;94407.75;2615213;39;20661;-76
2022/08/31 19:37:21;;;;;;;6.95;4.88;;;;;;;22.61;61.16;94383.16;2614804;54;20512;-77
2022/08/31 19:39:51;;;;;;;5.70;5.20;;;;;;;22.62;61.40;94387.47;2614324;47;20153;-80
2022/08/31 19:42:23;;;;;;;6.00;5.45;;;;;;;22.39;62.45;94411.69;2614474;47;20141;-78
2022/08/31 19:44:51;;;;;;;5.57;5.00;;;;;;;22.05;64.44;94418.72;2614914;47;20165;-78
2022/08/31 19:47:20;;;;;;;7.82;5.03;;;;;;;21.51;65.92;94410.09;2614882;47;20161;-78
2022/08/31 19:49:50;;;;;;;5.53;5.07;;;;;;;21.38;67.01;94419.63;2615860;47;20165;-78
2022/08/31 19:52:19;;;;;;;5.50;5.10;;;;;;;21.40;66.78;94414.56;2616259;54;20169;-77
2022/08/31 19:54:47;;;;;;;7.00;6.30;;;;;;;21.57;66.44;94415.78;2614255;54;20164;-80
2022/08/31 19:57:16;;;;;;;5.60;5.03;;;;;;;22.19;63.65;94406.97;2614734;54;21313;-77
2022/08/31 19:59:48;;;;;;;4.95;4.55;;;;;;;22.64;62.74;94422.06;2614404;47;20160;-77
2022/08/31 20:02:17;;;;;;;4.50;4.20;;;;;;;22.54;61.97;94392.69;2613761;47;20168;-78
2022/08/31 20:04:46;;;;;;;4.40;4.00;;;;;;;22.84;61.26;94412.34;2616573;47;20145;-77
2022/08/31 20:07:15;;;;;;;4.65;4.20;;;;;;;23.07;60.69;94432.88;2617692;31;20663;-77
2022/08/31 20:09:44;;;;;;;9.73;4.40;;;;;;;23.14;60.29;94430.56;2616897;54;20140;-77
2022/08/31 20:12:13;;;;;;;8.57;4.53;;;;;;;23.11;60.09;94424.13;2617033;47;20178;-78
2022/08/31 20:14:43;;;;;;;6.20;4.65;;;;;;;23.24;60.18;94428.19;2616795;47;20149;-78
2022/08/31 20:17:14;;;;;;;5.57;5.03;;;;;;;22.02;62.70;94382.72;2617085;47;20145;-78
2022/08/31 20:19:44;;;;;;;5.05;4.68;;;;;;;21.51;65.10;94424.50;2617051;47;20206;-78
2022/08/31 20:22:12;;;;;;;6.30;5.72;;;;;;;21.05;67.43;94416.41;2618535;54;20194;-76
2022/08/31 20:24:43;;;;;;;6.55;5.28;;;;;;;20.67;69.66;94424.00;2621168;47;20137;-77
2022/08/31 20:27:16;;;;;;;17.23;9.07;;;;;;;20.84;69.06;94402.25;2617582;47;20140;-77
2022/08/31 20:29:44;;;;;;;6.53;5.88;;;;;;;20.89;68.38;94420.19;2617468;39;20545;-77
2022/08/31 20:32:16;;;;;;;5.07;4.50;;;;;;;20.98;69.00;94418.66;2617051;47;20164;-78
2022/08/31 20:34:46;;;;;;;5.95;5.35;;;;;;;21.48;66.77;94425.25;2616966;47;20151;-79
2022/08/31 20:37:15;;;;;;;5.93;5.35;;;;;;;21.39;66.46;94407.38;2617197;54;20137;-79
2022/08/31 20:39:44;;;;;;;6.95;6.03;;;;;;;21.64;65.85;94422.88;2620127;47;20661;-78
2022/08/31 20:42:13;;;;;;;6.25;5.63;;;;;;;21.76;65.17;94424.16;2619175;54;20156;-78
2022/08/31 20:44:45;;;;;;;6.00;4.60;;;;;;;22.08;64.69;94420.13;2617720;54;20232;-76
2022/08/31 20:50:00;;;;;;;5.97;5.38;;;;;;;21.52;64.75;94407.94;2617650;47;20141;-78
2022/08/31 20:52:30;;;;;;;5.15;4.65;;;;;;;22.09;64.08;94413.63;2617430;47;20215;-77
2022/08/31 20:55:02;;;;;;;7.10;5.10;;;;;;;21.72;64.66;94424.25;2618269;31;20620;-78
2022/08/31 20:57:32;;;;;;;5.28;4.72;;;;;;;20.61;68.47;94420.47;2617521;54;20137;-77
2022/08/31 21:00:03;;;;;;;6.45;4.72;;;;;;;20.51;70.17;94415.53;2617415;54;20669;-77
2022/08/31 21:02:36;;;;;;;7.03;6.43;;;;;;;20.69;69.49;94418.22;2617322;39;20547;-78
2022/08/31 21:05:06;;;;;;;8.38;5.38;;;;;;;21.06;68.40;94423.59;2617027;47;20236;-78
2022/08/31 21:07:35;;;;;;;6.22;5.50;;;;;;;21.14;66.90;94406.94;2617702;54;20141;-78
2022/08/31 21:10:05;;;;;;;6.82;5.05;;;;;;;21.59;66.44;94418.63;2619334;39;20562;-77
2022/08/31 21:12:34;;;;;;;6.10;5.60;;;;;;;21.52;65.16;94400.00;2618102;54;20156;-77
2022/08/31 21:15:03;;;;;;;5.15;4.65;;;;;;;22.14;63.79;94403.41;2617439;47;20696;-78
2022/08/31 21:17:34;;;;;;;5.55;5.05;;;;;;;22.47;62.97;94423.09;2618143;47;20622;-78
2022/08/31 21:20:05;;;;;;;5.93;4.70;;;;;;;22.59;62.35;94414.22;2617691;54;20156;-77
2022/08/31 21:22:36;;;;;;;7.28;4.95;;;;;;;22.54;62.16;94407.81;2617494;47;20680;-77
2022/08/31 21:25:11;;;;;;;6.38;4.75;;;;;;;22.40;61.39;94416.72;2617814;54;20240;-78
2022/08/31 21:27:40;;;;;;;7.53;4.25;;;;;;;21.69;62.48;94408.41;2617633;47;20136;-79
2022/08/31 21:30:12;;;;;;;5.07;4.57;;;;;;;21.50;63.92;94413.72;2617660;47;20207;-78
2022/08/31 21:32:43;;;;;;;5.30;4.60;;;;;;;21.48;64.66;94410.84;2617174;54;20149;-78
2022/08/31 21:35:13;;;;;;;5.15;4.63;;;;;;;21.05;65.41;94399.84;2618819;47;20689;-77
2022/08/31 21:37:43;;;;;;;6.90;5.80;;;;;;;20.44;67.57;94417.75;2620744;46;20149;-77
2022/08/31 21:40:13;;;;;;;5.32;4.82;;;;;;;20.05;69.08;94413.75;2618421;47;20152;-77
2022/08/31 21:42:41;;;;;;;4.80;4.40;;;;;;;19.49;71.38;94398.31;2618069;47;20160;-78
2022/08/31 21:45:11;;;;;;;4.63;4.22;;;;;;;19.36;72.01;94409.13;2618264;47;20133;-77
2022/08/31 21:47:43;;;;;;;5.88;5.18;;;;;;;19.26;72.43;94420.66;2618344;47;20152;-77
2022/08/31 21:50:12;;;;;;;5.57;5.13;;;;;;;19.33;72.36;94412.72;2617726;47;20653;-77
2022/08/31 21:52:41;;;;;;;5.28;4.80;;;;;;;19.50;71.60;94405.50;2620306;54;20201;-78
2022/08/31 21:55:12;;;;;;;5.00;4.60;;;;;;;19.48;71.67;94408.34;2620590;47;20188;-77
2022/08/31 21:57:42;;;;;;;8.77;5.70;;;;;;;19.78;71.09;94408.19;2617705;47;20153;-77
2022/08/31 22:00:15;;;;;;;4.85;4.35;;;;;;;20.67;69.83;94408.91;2620658;54;20167;-77
2022/08/31 22:02:49;;;;;;;6.03;4.75;;;;;;;20.78;66.61;94402.28;2617745;47;20165;-77
2022/08/31 22:05:18;;;;;;;11.90;5.03;;;;;;;20.89;66.72;94406.50;2617626;47;20198;-77
2022/08/31 22:07:47;;;;;;;4.63;4.32;;;;;;;20.12;67.89;94412.94;2618154;39;20566;-77
2022/08/31 22:10:16;;;;;;;5.13;4.63;;;;;;;19.47;70.08;94406.91;2617695;54;20642;-77
2022/08/31 22:12:45;;;;;;;6.07;5.38;;;;;;;18.87;72.94;94402.84;2617991;54;20176;-78
2022/08/31 22:15:17;;;;;;;5.68;5.10;;;;;;;18.80;72.93;94404.31;2617907;46;20268;-77
2022/08/31 22:17:49;;;;;;;5.15;4.38;;;;;;;18.43;74.48;94395.06;2617642;47;20246;-77
2022/08/31 22:20:18;;;;;;;5.37;4.87;;;;;;;17.94;77.16;94388.66;2617774;47;20209;-77
2022/08/31 22:22:47;;;;;;;5.85;5.38;;;;;;;17.83;78.32;94372.91;2617549;46;20622;-77
2022/08/31 22:25:16;;;;;;;4.53;4.23;;;;;;;18.50;76.22;94384.28;2617498;47;20661;-78
2022/08/31 22:27:45;;;;;;;6.90;5.45;;;;;;;18.80;73.59;94378.50;2617460;46;20153;-78
2022/08/31 22:30:15;;;;;;;6.18;5.65;;;;;;;19.23;72.93;94370.44;2617738;54;20244;-78
2022/08/31 22:32:46;;;;;;;6.18;4.82;;;;;;;20.09;70.75;94379.91;2617410;54;20191;-77
2022/08/31 22:35:19;;;;;;;5.22;4.82;;;;;;;20.06;69.02;94366.31;2619836;47;20201;-76
2022/08/31 22:37:48;;;;;;;4.38;4.03;;;;;;;20.04;68.59;94372.78;2617399;54;20161;-76
2022/08/31 22:40:20;;;;;;;4.90;4.50;;;;;;;20.00;68.53;94354.84;2617509;54;20160;-77
2022/08/31 22:42:50;;;;;;;5.30;4.80;;;;;;;19.78;68.04;94352.88;2618206;54;20237;-77
2022/08/31 22:45:19;;;;;;;5.60;5.15;;;;;;;19.23;70.33;94352.50;2617755;54;20174;-77
2022/08/31 22:47:48;;;;;;;5.65;5.18;;;;;;;19.12;70.82;94352.53;2617833;54;20145;-77
2022/08/31 22:50:20;;;;;;;5.93;4.93;;;;;;;19.11;70.25;94354.00;2623971;46;20168;-77
2022/08/31 22:52:49;;;;;;;8.33;6.57;;;;;;;19.12;70.54;94351.84;2617478;47;20384;-78
2022/08/31 22:55:18;;;;;;;8.27;5.25;;;;;;;18.76;71.03;94326.88;2618968;54;20155;-78
2022/08/31 22:57:46;;;;;;;6.05;5.55;;;;;;;18.47;72.49;94341.28;2617521;54;20137;-79
2022/08/31 23:00:16;;;;;;;5.30;4.82;;;;;;;18.15;73.62;94327.03;2617627;47;20157;-78
2022/08/31 23:02:46;;;;;;;4.60;4.25;;;;;;;18.15;73.68;94334.91;2617503;54;20180;-77
2022/08/31 23:05:17;;;;;;;4.93;4.43;;;;;;;18.13;73.49;94332.78;2617604;47;20279;-77
2022/08/31 23:07:49;;;;;;;8.10;4.13;;;;;;;19.14;74.12;94343.91;2617702;47;20159;-78
2022/08/31 23:10:22;;;;;;;4.80;4.40;;;;;;;20.06;69.97;94323.91;2617232;47;20657;-76
2022/08/31 23:12:54;;;;;;;4.50;4.05;;;;;;;20.73;68.21;94346.25;2617800;39;20570;-77
2022/08/31 23:15:24;;;;;;;7.70;4.63;;;;;;;20.91;66.40;94339.53;2617561;47;20680;-77
2022/08/31 23:17:53;;;;;;;5.05;4.72;;;;;;;20.94;64.46;94320.81;2617449;47;20149;-78
2022/08/31 23:20:24;;;;;;;6.88;4.07;;;;;;;21.19;64.67;94333.44;2619973;47;20160;-76
2022/08/31 23:22:56;;;;;;;4.97;4.45;;;;;;;21.47;64.14;94314.34;2618290;47;20219;-77
2022/08/31 23:25:25;;;;;;;5.03;4.63;;;;;;;21.22;61.62;94331.97;2617449;47;20133;-77
2022/08/31 23:27:54;;;;;;;4.18;3.83;;;;;;;20.14;63.50;94334.59;2617379;47;20182;-77
2022/08/31 23:30:24;;;;;;;4.85;4.47;;;;;;;19.05;67.13;94298.75;2617207;54;20149;-77
2022/08/31 23:32:53;;;;;;;4.93;4.55;;;;;;;19.38;68.23;94317.22;2617354;54;20144;-78
2022/08/31 23:35:23;;;;;;;5.93;4.25;;;;;;;20.44;68.02;94328.56;2617287;47;20159;-78
2022/08/31 23:37:55;;;;;;;4.95;4.55;;;;;;;20.41;65.07;94321.41;2617183;47;20145;-78
2022/08/31 23:40:25;;;;;;;4.68;4.28;;;;;;;20.31;63.53;94320.78;2617360;47;20744;-77
2022/08/31 23:42:54;;;;;;;5.03;4.10;;;;;;;19.66;65.44;94318.50;2617191;54;20145;-77
2022/08/31 23:45:23;;;;;;;5.18;4.88;;;;;;;19.11;67.46;94322.41;2617329;54;20155;-78
2022/08/31 23:47:51;;;;;;;5.22;4.72;;;;;;;18.80;68.70;94326.88;2617411;47;20156;-78
2022/08/31 23:50:20;;;;;;;5.20;4.80;;;;;;;18.26;70.69;94314.09;2617697;47;20232;-77
2022/08/31 23:52:50;;;;;;;6.47;4.60;;;;;;;17.67;72.72;94302.00;2617001;54;20184;-78
2022/08/31 23:55:29;;;;;;;5.10;4.70;;;;;;;17.52;74.83;94317.72;2617231;54;20145;-77
2022/08/31 23:57:59;;;;;;;5.30;4.77;;;;;;;17.67;76.32;94316.31;2617062;54;20152;-78
